sensor_id;sensor_type;location;lat;lon;timestamp;temperature;humidity
18426;DHT22;9340;48.756;9.226;2022-07-05T00:01:06;16.40;99.90
18426;DHT22;9340;48.756;9.226;2022-07-05T00:03:32;16.40;99.90
18426;DHT22;9340;48.756;9.226;2022-07-05T00:05:59;16.30;99.90
18426;DHT22;9340;48.756;9.226;2022-07-05T00:08:26;16.30;99.90
18426;DHT22;9340;48.756;9.226;2022-07-05T00:10:53;16.30;99.90
18426;DHT22;9340;48.756;9.226;2022-07-05T00:13:20;16.00;99.90
18426;DHT22;9340;48.756;9.226;2022-07-05T00:15:46;16.00;99.90
18426;DHT22;9340;48.756;9.226;2022-07-05T00:18:14;15.90;99.90
18426;DHT22;9340;48.756;9.226;2022-07-05T00:20:41;15.90;99.90
18426;DHT22;9340;48.756;9.226;2022-07-05T00:23:08;15.90;99.90
18426;DHT22;9340;48.756;9.226;2022-07-05T00:25:35;16.00;99.90
18426;DHT22;9340;48.756;9.226;2022-07-05T00:28:01;15.90;99.90
18426;DHT22;9340;48.756;9.226;2022-07-05T00:30:29;15.90;99.90
18426;DHT22;9340;48.756;9.226;2022-07-05T00:32:56;15.80;99.90
18426;DHT22;9340;48.756;9.226;2022-07-05T00:35:24;15.70;99.90
18426;DHT22;9340;48.756;9.226;2022-07-05T00:37:50;15.70;99.90
18426;DHT22;9340;48.756;9.226;2022-07-05T00:40:17;15.50;99.90
18426;DHT22;9340;48.756;9.226;2022-07-05T00:42:44;15.50;99.90
18426;DHT22;9340;48.756;9.226;2022-07-05T00:45:11;15.30;99.90
18426;DHT22;9340;48.756;9.226;2022-07-05T00:47:38;15.30;99.90
18426;DHT22;9340;48.756;9.226;2022-07-05T00:50:06;15.30;99.90
18426;DHT22;9340;48.756;9.226;2022-07-05T00:52:34;15.40;99.90
18426;DHT22;9340;48.756;9.226;2022-07-05T00:55:01;15.50;99.90
18426;DHT22;9340;48.756;9.226;2022-07-05T00:57:27;15.50;99.90
18426;DHT22;9340;48.756;9.226;2022-07-05T00:59:55;15.50;99.90
18426;DHT22;9340;48.756;9.226;2022-07-05T01:02:21;15.50;99.90
18426;DHT22;9340;48.756;9.226;2022-07-05T01:04:49;15.40;99.90
18426;DHT22;9340;48.756;9.226;2022-07-05T01:07:18;15.40;99.90
18426;DHT22;9340;48.756;9.226;2022-07-05T01:09:46;15.30;99.90
18426;DHT22;9340;48.756;9.226;2022-07-05T01:12:13;15.40;99.90
18426;DHT22;9340;48.756;9.226;2022-07-05T01:14:41;15.40;99.90
18426;DHT22;9340;48.756;9.226;2022-07-05T01:17:08;15.40;99.90
18426;DHT22;9340;48.756;9.226;2022-07-05T01:19:36;15.30;99.90
18426;DHT22;9340;48.756;9.226;2022-07-05T01:22:03;15.20;99.90
18426;DHT22;9340;48.756;9.226;2022-07-05T01:24:34;15.10;99.90
18426;DHT22;9340;48.756;9.226;2022-07-05T01:27:01;15.00;99.90
18426;DHT22;9340;48.756;9.226;2022-07-05T01:29:28;15.00;99.90
18426;DHT22;9340;48.756;9.226;2022-07-05T01:31:54;15.00;99.90
18426;DHT22;9340;48.756;9.226;2022-07-05T01:34:21;15.00;99.90
18426;DHT22;9340;48.756;9.226;2022-07-05T01:36:48;15.00;99.90
18426;DHT22;9340;48.756;9.226;2022-07-05T01:39:15;14.90;99.90
18426;DHT22;9340;48.756;9.226;2022-07-05T01:41:43;14.90;99.90
18426;DHT22;9340;48.756;9.226;2022-07-05T01:44:11;14.80;99.90
18426;DHT22;9340;48.756;9.226;2022-07-05T01:46:38;14.80;99.90
18426;DHT22;9340;48.756;9.226;2022-07-05T01:49:08;14.80;99.90
18426;DHT22;9340;48.756;9.226;2022-07-05T01:51:39;14.80;99.90
18426;DHT22;9340;48.756;9.226;2022-07-05T01:54:06;14.80;99.90
18426;DHT22;9340;48.756;9.226;2022-07-05T01:56:33;14.70;99.90
18426;DHT22;9340;48.756;9.226;2022-07-05T01:59:01;14.70;99.90
18426;DHT22;9340;48.756;9.226;2022-07-05T02:01:35;14.70;99.90
18426;DHT22;9340;48.756;9.226;2022-07-05T02:04:03;14.60;99.90
18426;DHT22;9340;48.756;9.226;2022-07-05T02:06:31;14.60;99.90
18426;DHT22;9340;48.756;9.226;2022-07-05T02:08:58;14.60;99.90
18426;DHT22;9340;48.756;9.226;2022-07-05T02:11:25;14.70;99.90
18426;DHT22;9340;48.756;9.226;2022-07-05T02:13:52;14.60;99.90
18426;DHT22;9340;48.756;9.226;2022-07-05T02:16:23;14.40;99.90
18426;DHT22;9340;48.756;9.226;2022-07-05T02:18:49;14.50;99.90
18426;DHT22;9340;48.756;9.226;2022-07-05T02:21:16;14.40;99.90
18426;DHT22;9340;48.756;9.226;2022-07-05T02:23:43;14.30;99.90
18426;DHT22;9340;48.756;9.226;2022-07-05T02:26:10;14.30;99.90
18426;DHT22;9340;48.756;9.226;2022-07-05T02:28:37;14.10;99.90
18426;DHT22;9340;48.756;9.226;2022-07-05T02:31:04;14.10;99.90
18426;DHT22;9340;48.756;9.226;2022-07-05T02:33:32;14.10;99.90
18426;DHT22;9340;48.756;9.226;2022-07-05T02:36:05;14.20;99.90
18426;DHT22;9340;48.756;9.226;2022-07-05T02:38:32;14.20;99.90
18426;DHT22;9340;48.756;9.226;2022-07-05T02:40:59;14.30;99.90
18426;DHT22;9340;48.756;9.226;2022-07-05T02:43:25;14.30;99.90
18426;DHT22;9340;48.756;9.226;2022-07-05T02:45:52;14.30;99.90
18426;DHT22;9340;48.756;9.226;2022-07-05T02:48:18;14.30;99.90
18426;DHT22;9340;48.756;9.226;2022-07-05T02:50:48;14.20;99.90
18426;DHT22;9340;48.756;9.226;2022-07-05T02:53:14;14.20;99.90
18426;DHT22;9340;48.756;9.226;2022-07-05T02:55:41;14.10;99.90
18426;DHT22;9340;48.756;9.226;2022-07-05T02:58:07;14.10;99.90
18426;DHT22;9340;48.756;9.226;2022-07-05T03:00:34;14.00;99.90
18426;DHT22;9340;48.756;9.226;2022-07-05T03:03:01;13.90;99.90
18426;DHT22;9340;48.756;9.226;2022-07-05T03:05:28;13.90;99.90
18426;DHT22;9340;48.756;9.226;2022-07-05T03:07:56;13.90;99.90
18426;DHT22;9340;48.756;9.226;2022-07-05T03:10:22;13.90;99.90
18426;DHT22;9340;48.756;9.226;2022-07-05T03:12:50;13.80;99.90
18426;DHT22;9340;48.756;9.226;2022-07-05T03:15:17;13.80;99.90
18426;DHT22;9340;48.756;9.226;2022-07-05T03:17:44;13.80;99.90
18426;DHT22;9340;48.756;9.226;2022-07-05T03:20:11;13.80;99.90
18426;DHT22;9340;48.756;9.226;2022-07-05T03:22:37;13.70;99.90
18426;DHT22;9340;48.756;9.226;2022-07-05T03:25:06;13.70;99.90
18426;DHT22;9340;48.756;9.226;2022-07-05T03:27:33;13.70;99.90
18426;DHT22;9340;48.756;9.226;2022-07-05T03:30:00;13.70;99.90
18426;DHT22;9340;48.756;9.226;2022-07-05T03:32:26;13.70;99.90
18426;DHT22;9340;48.756;9.226;2022-07-05T03:34:53;13.80;99.90
18426;DHT22;9340;48.756;9.226;2022-07-05T03:37:20;13.70;99.90
18426;DHT22;9340;48.756;9.226;2022-07-05T03:39:46;13.60;99.90
18426;DHT22;9340;48.756;9.226;2022-07-05T03:42:14;13.60;99.90
18426;DHT22;9340;48.756;9.226;2022-07-05T03:44:41;13.60;99.90
18426;DHT22;9340;48.756;9.226;2022-07-05T03:47:08;13.60;99.90
18426;DHT22;9340;48.756;9.226;2022-07-05T03:49:34;13.50;99.90
18426;DHT22;9340;48.756;9.226;2022-07-05T03:52:01;13.60;99.90
18426;DHT22;9340;48.756;9.226;2022-07-05T03:54:27;13.70;99.90
18426;DHT22;9340;48.756;9.226;2022-07-05T03:56:54;13.60;99.90
18426;DHT22;9340;48.756;9.226;2022-07-05T03:59:22;13.60;99.90
18426;DHT22;9340;48.756;9.226;2022-07-05T04:01:49;13.70;99.90
18426;DHT22;9340;48.756;9.226;2022-07-05T04:04:15;13.80;99.90
18426;DHT22;9340;48.756;9.226;2022-07-05T04:06:42;13.80;99.90
18426;DHT22;9340;48.756;9.226;2022-07-05T04:09:09;13.80;99.90
18426;DHT22;9340;48.756;9.226;2022-07-05T04:11:35;13.80;99.90
18426;DHT22;9340;48.756;9.226;2022-07-05T04:14:02;13.70;99.90
18426;DHT22;9340;48.756;9.226;2022-07-05T04:16:31;13.80;99.90
18426;DHT22;9340;48.756;9.226;2022-07-05T04:18:58;13.80;99.90
18426;DHT22;9340;48.756;9.226;2022-07-05T04:21:25;13.80;99.90
18426;DHT22;9340;48.756;9.226;2022-07-05T04:23:51;13.80;99.90
18426;DHT22;9340;48.756;9.226;2022-07-05T04:26:18;14.00;99.90
18426;DHT22;9340;48.756;9.226;2022-07-05T04:28:45;14.00;99.90
18426;DHT22;9340;48.756;9.226;2022-07-05T04:31:12;14.10;99.90
18426;DHT22;9340;48.756;9.226;2022-07-05T04:33:40;13.90;99.90
18426;DHT22;9340;48.756;9.226;2022-07-05T04:36:07;13.80;99.90
18426;DHT22;9340;48.756;9.226;2022-07-05T04:38:33;13.80;99.90
18426;DHT22;9340;48.756;9.226;2022-07-05T04:41:00;13.90;99.90
18426;DHT22;9340;48.756;9.226;2022-07-05T04:43:26;14.20;99.90
18426;DHT22;9340;48.756;9.226;2022-07-05T04:45:53;14.30;99.90
18426;DHT22;9340;48.756;9.226;2022-07-05T04:48:20;14.50;99.90
18426;DHT22;9340;48.756;9.226;2022-07-05T04:50:48;14.60;99.90
18426;DHT22;9340;48.756;9.226;2022-07-05T04:53:15;14.70;99.90
18426;DHT22;9340;48.756;9.226;2022-07-05T04:55:41;14.90;99.90
18426;DHT22;9340;48.756;9.226;2022-07-05T04:58:08;15.00;99.90
18426;DHT22;9340;48.756;9.226;2022-07-05T05:00:36;15.20;99.90
18426;DHT22;9340;48.756;9.226;2022-07-05T05:03:02;15.40;99.90
18426;DHT22;9340;48.756;9.226;2022-07-05T05:05:29;15.50;99.90
18426;DHT22;9340;48.756;9.226;2022-07-05T05:07:57;15.60;99.90
18426;DHT22;9340;48.756;9.226;2022-07-05T05:10:24;15.70;99.90
18426;DHT22;9340;48.756;9.226;2022-07-05T05:12:51;15.70;99.90
18426;DHT22;9340;48.756;9.226;2022-07-05T05:15:17;15.70;99.90
18426;DHT22;9340;48.756;9.226;2022-07-05T05:17:44;15.80;99.90
18426;DHT22;9340;48.756;9.226;2022-07-05T05:20:12;15.90;99.90
18426;DHT22;9340;48.756;9.226;2022-07-05T05:22:39;16.20;99.90
18426;DHT22;9340;48.756;9.226;2022-07-05T05:25:09;16.60;99.90
18426;DHT22;9340;48.756;9.226;2022-07-05T05:27:40;18.00;99.90
18426;DHT22;9340;48.756;9.226;2022-07-05T05:30:08;20.40;99.90
18426;DHT22;9340;48.756;9.226;2022-07-05T05:32:35;22.50;99.90
18426;DHT22;9340;48.756;9.226;2022-07-05T05:35:02;24.10;99.90
18426;DHT22;9340;48.756;9.226;2022-07-05T05:37:29;25.30;99.90
18426;DHT22;9340;48.756;9.226;2022-07-05T05:39:56;25.80;99.90
18426;DHT22;9340;48.756;9.226;2022-07-05T05:42:24;26.10;99.90
18426;DHT22;9340;48.756;9.226;2022-07-05T05:44:50;26.60;99.90
18426;DHT22;9340;48.756;9.226;2022-07-05T05:47:17;27.00;99.90
18426;DHT22;9340;48.756;9.226;2022-07-05T05:49:44;27.60;99.90
18426;DHT22;9340;48.756;9.226;2022-07-05T05:52:10;27.80;99.90
18426;DHT22;9340;48.756;9.226;2022-07-05T05:54:37;28.00;99.90
18426;DHT22;9340;48.756;9.226;2022-07-05T05:57:04;28.30;99.90
18426;DHT22;9340;48.756;9.226;2022-07-05T05:59:32;28.70;99.90
18426;DHT22;9340;48.756;9.226;2022-07-05T06:01:58;28.90;99.90
18426;DHT22;9340;48.756;9.226;2022-07-05T06:04:25;29.20;99.90
18426;DHT22;9340;48.756;9.226;2022-07-05T06:06:52;29.20;99.90
18426;DHT22;9340;48.756;9.226;2022-07-05T06:09:18;28.40;99.90
18426;DHT22;9340;48.756;9.226;2022-07-05T06:11:45;28.40;99.90
18426;DHT22;9340;48.756;9.226;2022-07-05T06:14:11;28.30;99.90
18426;DHT22;9340;48.756;9.226;2022-07-05T06:16:39;28.40;99.90
18426;DHT22;9340;48.756;9.226;2022-07-05T06:19:06;28.60;99.90
18426;DHT22;9340;48.756;9.226;2022-07-05T06:21:33;28.70;99.90
18426;DHT22;9340;48.756;9.226;2022-07-05T06:23:59;28.20;99.90
18426;DHT22;9340;48.756;9.226;2022-07-05T06:26:26;27.80;99.90
18426;DHT22;9340;48.756;9.226;2022-07-05T06:28:53;27.70;99.90
18426;DHT22;9340;48.756;9.226;2022-07-05T06:31:19;27.30;99.90
18426;DHT22;9340;48.756;9.226;2022-07-05T06:33:47;26.90;99.90
18426;DHT22;9340;48.756;9.226;2022-07-05T06:36:14;26.50;99.90
18426;DHT22;9340;48.756;9.226;2022-07-05T06:38:40;26.00;99.90
18426;DHT22;9340;48.756;9.226;2022-07-05T06:41:07;25.90;99.90
18426;DHT22;9340;48.756;9.226;2022-07-05T06:43:34;25.60;99.90
18426;DHT22;9340;48.756;9.226;2022-07-05T06:46:00;25.40;99.90
18426;DHT22;9340;48.756;9.226;2022-07-05T06:48:27;25.00;99.90
18426;DHT22;9340;48.756;9.226;2022-07-05T06:50:55;24.50;99.90
18426;DHT22;9340;48.756;9.226;2022-07-05T06:53:22;23.90;99.90
18426;DHT22;9340;48.756;9.226;2022-07-05T06:55:48;23.40;99.90
18426;DHT22;9340;48.756;9.226;2022-07-05T06:58:16;23.00;99.90
18426;DHT22;9340;48.756;9.226;2022-07-05T07:00:43;22.60;99.90
18426;DHT22;9340;48.756;9.226;2022-07-05T07:03:10;22.40;99.90
18426;DHT22;9340;48.756;9.226;2022-07-05T07:05:37;22.20;99.90
18426;DHT22;9340;48.756;9.226;2022-07-05T07:08:05;22.10;99.90
18426;DHT22;9340;48.756;9.226;2022-07-05T07:10:49;22.00;99.90
18426;DHT22;9340;48.756;9.226;2022-07-05T07:13:16;21.90;99.90
18426;DHT22;9340;48.756;9.226;2022-07-05T07:15:43;21.80;99.90
18426;DHT22;9340;48.756;9.226;2022-07-05T07:18:09;21.70;99.90
18426;DHT22;9340;48.756;9.226;2022-07-05T07:20:36;21.70;99.90
18426;DHT22;9340;48.756;9.226;2022-07-05T07:23:02;21.80;99.90
18426;DHT22;9340;48.756;9.226;2022-07-05T07:25:31;21.70;99.90
18426;DHT22;9340;48.756;9.226;2022-07-05T07:27:57;21.80;99.90
18426;DHT22;9340;48.756;9.226;2022-07-05T07:30:25;21.80;99.90
18426;DHT22;9340;48.756;9.226;2022-07-05T07:32:52;21.80;99.90
18426;DHT22;9340;48.756;9.226;2022-07-05T07:35:20;21.80;99.90
18426;DHT22;9340;48.756;9.226;2022-07-05T07:37:47;21.90;99.90
18426;DHT22;9340;48.756;9.226;2022-07-05T07:40:13;22.00;99.90
18426;DHT22;9340;48.756;9.226;2022-07-05T07:42:41;22.10;99.90
18426;DHT22;9340;48.756;9.226;2022-07-05T07:45:09;22.00;99.90
18426;DHT22;9340;48.756;9.226;2022-07-05T07:47:37;22.00;99.90
18426;DHT22;9340;48.756;9.226;2022-07-05T07:50:04;22.10;99.90
18426;DHT22;9340;48.756;9.226;2022-07-05T07:52:31;22.20;99.90
18426;DHT22;9340;48.756;9.226;2022-07-05T07:54:59;22.20;99.90
18426;DHT22;9340;48.756;9.226;2022-07-05T07:57:26;22.20;99.90
18426;DHT22;9340;48.756;9.226;2022-07-05T07:59:54;22.30;99.90
18426;DHT22;9340;48.756;9.226;2022-07-05T08:02:20;22.30;99.90
18426;DHT22;9340;48.756;9.226;2022-07-05T08:04:48;22.40;99.90
18426;DHT22;9340;48.756;9.226;2022-07-05T08:07:15;22.40;99.90
18426;DHT22;9340;48.756;9.226;2022-07-05T08:09:42;22.50;99.90
18426;DHT22;9340;48.756;9.226;2022-07-05T08:12:10;22.60;99.90
18426;DHT22;9340;48.756;9.226;2022-07-05T08:14:36;22.60;99.90
18426;DHT22;9340;48.756;9.226;2022-07-05T08:17:05;22.60;99.90
18426;DHT22;9340;48.756;9.226;2022-07-05T08:19:33;22.70;99.90
18426;DHT22;9340;48.756;9.226;2022-07-05T08:22:18;22.70;99.90
18426;DHT22;9340;48.756;9.226;2022-07-05T08:24:45;22.80;99.90
18426;DHT22;9340;48.756;9.226;2022-07-05T08:27:12;22.90;99.90
18426;DHT22;9340;48.756;9.226;2022-07-05T08:29:39;22.90;99.90
18426;DHT22;9340;48.756;9.226;2022-07-05T08:32:08;23.00;99.90
18426;DHT22;9340;48.756;9.226;2022-07-05T08:34:36;23.00;99.90
18426;DHT22;9340;48.756;9.226;2022-07-05T08:37:03;23.10;99.90
18426;DHT22;9340;48.756;9.226;2022-07-05T08:39:29;23.10;99.90
18426;DHT22;9340;48.756;9.226;2022-07-05T08:41:58;23.10;99.90
18426;DHT22;9340;48.756;9.226;2022-07-05T08:44:27;23.10;99.90
18426;DHT22;9340;48.756;9.226;2022-07-05T08:46:55;23.10;99.90
18426;DHT22;9340;48.756;9.226;2022-07-05T08:49:25;23.20;99.90
18426;DHT22;9340;48.756;9.226;2022-07-05T08:51:52;23.30;99.90
18426;DHT22;9340;48.756;9.226;2022-07-05T08:54:21;23.30;99.90
18426;DHT22;9340;48.756;9.226;2022-07-05T08:56:48;23.20;99.90
18426;DHT22;9340;48.756;9.226;2022-07-05T08:59:14;23.30;99.90
18426;DHT22;9340;48.756;9.226;2022-07-05T09:01:41;23.40;99.90
18426;DHT22;9340;48.756;9.226;2022-07-05T09:04:11;23.40;99.90
18426;DHT22;9340;48.756;9.226;2022-07-05T09:06:40;23.50;99.90
18426;DHT22;9340;48.756;9.226;2022-07-05T09:09:07;23.60;99.90
18426;DHT22;9340;48.756;9.226;2022-07-05T09:11:36;23.70;99.90
18426;DHT22;9340;48.756;9.226;2022-07-05T09:14:04;23.80;99.90
18426;DHT22;9340;48.756;9.226;2022-07-05T09:16:31;23.80;99.90
18426;DHT22;9340;48.756;9.226;2022-07-05T09:19:05;23.80;99.90
18426;DHT22;9340;48.756;9.226;2022-07-05T09:21:32;23.90;99.90
18426;DHT22;9340;48.756;9.226;2022-07-05T09:24:02;24.00;99.90
18426;DHT22;9340;48.756;9.226;2022-07-05T09:26:33;24.00;99.90
18426;DHT22;9340;48.756;9.226;2022-07-05T09:29:00;24.00;99.90
18426;DHT22;9340;48.756;9.226;2022-07-05T09:31:29;24.00;99.90
18426;DHT22;9340;48.756;9.226;2022-07-05T09:34:06;24.10;99.90
18426;DHT22;9340;48.756;9.226;2022-07-05T09:36:49;24.20;99.90
18426;DHT22;9340;48.756;9.226;2022-07-05T09:39:18;24.20;99.90
18426;DHT22;9340;48.756;9.226;2022-07-05T09:41:44;24.20;99.90
18426;DHT22;9340;48.756;9.226;2022-07-05T09:44:11;24.20;99.90
18426;DHT22;9340;48.756;9.226;2022-07-05T09:46:50;24.40;99.90
18426;DHT22;9340;48.756;9.226;2022-07-05T09:49:25;24.50;99.90
18426;DHT22;9340;48.756;9.226;2022-07-05T09:51:51;24.60;99.90
18426;DHT22;9340;48.756;9.226;2022-07-05T09:54:21;24.60;99.90
18426;DHT22;9340;48.756;9.226;2022-07-05T09:56:48;24.60;99.90
18426;DHT22;9340;48.756;9.226;2022-07-05T09:59:16;24.70;99.90
18426;DHT22;9340;48.756;9.226;2022-07-05T10:01:44;25.00;99.90
18426;DHT22;9340;48.756;9.226;2022-07-05T10:04:11;25.00;99.90
18426;DHT22;9340;48.756;9.226;2022-07-05T10:06:38;25.20;99.90
18426;DHT22;9340;48.756;9.226;2022-07-05T10:09:05;25.30;99.90
18426;DHT22;9340;48.756;9.226;2022-07-05T10:11:34;25.30;99.90
18426;DHT22;9340;48.756;9.226;2022-07-05T10:14:09;25.30;99.40
18426;DHT22;9340;48.756;9.226;2022-07-05T10:16:36;25.30;99.90
18426;DHT22;9340;48.756;9.226;2022-07-05T10:19:05;25.40;99.90
18426;DHT22;9340;48.756;9.226;2022-07-05T10:21:33;25.50;99.80
18426;DHT22;9340;48.756;9.226;2022-07-05T10:24:01;25.60;99.90
18426;DHT22;9340;48.756;9.226;2022-07-05T10:26:27;25.70;98.00
18426;DHT22;9340;48.756;9.226;2022-07-05T10:29:00;25.80;99.90
18426;DHT22;9340;48.756;9.226;2022-07-05T10:31:28;25.80;98.60
18426;DHT22;9340;48.756;9.226;2022-07-05T10:33:56;25.70;97.40
18426;DHT22;9340;48.756;9.226;2022-07-05T10:36:23;25.80;99.00
18426;DHT22;9340;48.756;9.226;2022-07-05T10:38:50;25.70;96.40
18426;DHT22;9340;48.756;9.226;2022-07-05T10:41:24;25.70;97.50
18426;DHT22;9340;48.756;9.226;2022-07-05T10:43:53;25.50;95.80
18426;DHT22;9340;48.756;9.226;2022-07-05T10:46:35;25.40;95.50
18426;DHT22;9340;48.756;9.226;2022-07-05T10:49:14;25.50;96.60
18426;DHT22;9340;48.756;9.226;2022-07-05T10:51:41;25.50;97.60
18426;DHT22;9340;48.756;9.226;2022-07-05T10:54:08;25.70;97.40
18426;DHT22;9340;48.756;9.226;2022-07-05T10:56:35;25.60;95.70
18426;DHT22;9340;48.756;9.226;2022-07-05T10:59:09;25.50;96.50
18426;DHT22;9340;48.756;9.226;2022-07-05T11:01:39;25.60;98.00
18426;DHT22;9340;48.756;9.226;2022-07-05T11:04:13;25.60;98.40
18426;DHT22;9340;48.756;9.226;2022-07-05T11:06:43;25.70;99.30
18426;DHT22;9340;48.756;9.226;2022-07-05T11:09:15;25.90;96.20
18426;DHT22;9340;48.756;9.226;2022-07-05T11:11:43;25.90;96.90
18426;DHT22;9340;48.756;9.226;2022-07-05T11:14:32;25.90;95.90
18426;DHT22;9340;48.756;9.226;2022-07-05T11:17:21;26.00;97.30
18426;DHT22;9340;48.756;9.226;2022-07-05T11:20:03;26.20;97.50
18426;DHT22;9340;48.756;9.226;2022-07-05T11:22:31;26.00;98.00
18426;DHT22;9340;48.756;9.226;2022-07-05T11:24:58;25.40;96.80
18426;DHT22;9340;48.756;9.226;2022-07-05T11:27:25;25.20;96.90
18426;DHT22;9340;48.756;9.226;2022-07-05T11:29:53;25.20;96.90
18426;DHT22;9340;48.756;9.226;2022-07-05T11:32:22;25.40;96.50
18426;DHT22;9340;48.756;9.226;2022-07-05T11:34:50;25.50;97.90
18426;DHT22;9340;48.756;9.226;2022-07-05T11:37:18;25.70;97.90
18426;DHT22;9340;48.756;9.226;2022-07-05T11:42:51;26.00;98.10
18426;DHT22;9340;48.756;9.226;2022-07-05T11:45:18;26.20;96.40
18426;DHT22;9340;48.756;9.226;2022-07-05T11:47:46;26.40;96.80
18426;DHT22;9340;48.756;9.226;2022-07-05T11:50:13;26.40;97.50
18426;DHT22;9340;48.756;9.226;2022-07-05T11:52:40;26.50;97.50
18426;DHT22;9340;48.756;9.226;2022-07-05T11:55:09;26.30;97.60
18426;DHT22;9340;48.756;9.226;2022-07-05T11:57:36;26.30;97.20
18426;DHT22;9340;48.756;9.226;2022-07-05T12:00:04;26.30;99.90
18426;DHT22;9340;48.756;9.226;2022-07-05T12:02:31;26.20;97.30
18426;DHT22;9340;48.756;9.226;2022-07-05T12:04:59;26.10;94.60
18426;DHT22;9340;48.756;9.226;2022-07-05T12:07:26;26.00;97.30
18426;DHT22;9340;48.756;9.226;2022-07-05T12:09:53;26.10;97.70
18426;DHT22;9340;48.756;9.226;2022-07-05T12:12:38;26.20;97.30
18426;DHT22;9340;48.756;9.226;2022-07-05T12:15:12;26.20;95.80
18426;DHT22;9340;48.756;9.226;2022-07-05T12:17:40;26.30;97.10
18426;DHT22;9340;48.756;9.226;2022-07-05T12:20:10;26.40;95.10
18426;DHT22;9340;48.756;9.226;2022-07-05T12:22:40;26.20;94.80
18426;DHT22;9340;48.756;9.226;2022-07-05T12:25:08;26.20;97.10
18426;DHT22;9340;48.756;9.226;2022-07-05T12:27:38;26.20;99.40
18426;DHT22;9340;48.756;9.226;2022-07-05T12:30:07;26.00;95.90
18426;DHT22;9340;48.756;9.226;2022-07-05T12:32:53;26.00;97.80
18426;DHT22;9340;48.756;9.226;2022-07-05T12:35:32;26.30;96.20
18426;DHT22;9340;48.756;9.226;2022-07-05T12:38:03;26.40;95.90
18426;DHT22;9340;48.756;9.226;2022-07-05T12:40:30;26.60;97.00
18426;DHT22;9340;48.756;9.226;2022-07-05T12:43:05;26.70;97.30
18426;DHT22;9340;48.756;9.226;2022-07-05T12:45:33;26.80;96.60
18426;DHT22;9340;48.756;9.226;2022-07-05T12:48:01;26.60;97.50
18426;DHT22;9340;48.756;9.226;2022-07-05T12:50:44;26.60;96.00
18426;DHT22;9340;48.756;9.226;2022-07-05T12:53:11;26.60;96.20
18426;DHT22;9340;48.756;9.226;2022-07-05T12:56:02;26.90;95.40
18426;DHT22;9340;48.756;9.226;2022-07-05T12:58:49;27.20;96.80
18426;DHT22;9340;48.756;9.226;2022-07-05T13:01:24;27.30;96.80
18426;DHT22;9340;48.756;9.226;2022-07-05T13:03:58;27.30;97.00
18426;DHT22;9340;48.756;9.226;2022-07-05T13:06:44;27.10;96.50
18426;DHT22;9340;48.756;9.226;2022-07-05T13:09:13;27.10;96.80
18426;DHT22;9340;48.756;9.226;2022-07-05T13:11:40;27.10;95.30
18426;DHT22;9340;48.756;9.226;2022-07-05T13:14:07;27.20;94.70
18426;DHT22;9340;48.756;9.226;2022-07-05T13:16:34;27.20;96.60
18426;DHT22;9340;48.756;9.226;2022-07-05T13:19:10;27.20;95.30
18426;DHT22;9340;48.756;9.226;2022-07-05T13:21:37;27.10;94.40
18426;DHT22;9340;48.756;9.226;2022-07-05T13:24:06;27.10;96.40
18426;DHT22;9340;48.756;9.226;2022-07-05T13:26:33;27.30;96.30
18426;DHT22;9340;48.756;9.226;2022-07-05T13:29:00;27.30;96.60
18426;DHT22;9340;48.756;9.226;2022-07-05T13:31:26;27.30;95.40
18426;DHT22;9340;48.756;9.226;2022-07-05T13:33:56;27.10;95.00
18426;DHT22;9340;48.756;9.226;2022-07-05T13:36:23;26.50;96.90
18426;DHT22;9340;48.756;9.226;2022-07-05T13:38:50;26.20;97.80
18426;DHT22;9340;48.756;9.226;2022-07-05T13:41:18;26.40;97.80
18426;DHT22;9340;48.756;9.226;2022-07-05T13:43:44;26.50;97.20
18426;DHT22;9340;48.756;9.226;2022-07-05T13:46:12;26.70;97.10
18426;DHT22;9340;48.756;9.226;2022-07-05T13:48:39;26.60;95.90
18426;DHT22;9340;48.756;9.226;2022-07-05T13:51:06;26.40;98.20
18426;DHT22;9340;48.756;9.226;2022-07-05T13:53:33;26.60;95.80
18426;DHT22;9340;48.756;9.226;2022-07-05T13:56:02;26.80;97.50
18426;DHT22;9340;48.756;9.226;2022-07-05T13:58:30;27.00;96.80
18426;DHT22;9340;48.756;9.226;2022-07-05T14:00:57;27.30;95.80
18426;DHT22;9340;48.756;9.226;2022-07-05T14:03:23;27.50;96.80
18426;DHT22;9340;48.756;9.226;2022-07-05T14:05:50;27.40;95.70
18426;DHT22;9340;48.756;9.226;2022-07-05T14:08:17;27.50;95.10
18426;DHT22;9340;48.756;9.226;2022-07-05T14:10:47;27.40;96.30
18426;DHT22;9340;48.756;9.226;2022-07-05T14:13:15;27.20;96.50
18426;DHT22;9340;48.756;9.226;2022-07-05T14:15:43;27.10;96.60
18426;DHT22;9340;48.756;9.226;2022-07-05T14:18:11;27.10;96.20
18426;DHT22;9340;48.756;9.226;2022-07-05T14:20:37;27.10;95.20
18426;DHT22;9340;48.756;9.226;2022-07-05T14:23:04;26.90;96.80
18426;DHT22;9340;48.756;9.226;2022-07-05T14:25:31;26.70;96.90
18426;DHT22;9340;48.756;9.226;2022-07-05T14:27:57;26.70;96.60
18426;DHT22;9340;48.756;9.226;2022-07-05T14:30:24;26.80;95.90
18426;DHT22;9340;48.756;9.226;2022-07-05T14:32:54;26.90;95.80
18426;DHT22;9340;48.756;9.226;2022-07-05T14:35:21;27.00;94.80
18426;DHT22;9340;48.756;9.226;2022-07-05T14:37:49;26.90;96.10
18426;DHT22;9340;48.756;9.226;2022-07-05T14:40:15;26.90;98.60
18426;DHT22;9340;48.756;9.226;2022-07-05T14:42:44;27.00;95.00
18426;DHT22;9340;48.756;9.226;2022-07-05T14:45:11;27.20;96.20
18426;DHT22;9340;48.756;9.226;2022-07-05T14:47:38;26.80;96.50
18426;DHT22;9340;48.756;9.226;2022-07-05T14:50:06;26.50;95.50
18426;DHT22;9340;48.756;9.226;2022-07-05T14:52:33;26.20;96.70
18426;DHT22;9340;48.756;9.226;2022-07-05T14:54:59;26.40;95.60
18426;DHT22;9340;48.756;9.226;2022-07-05T14:57:26;26.60;95.80
18426;DHT22;9340;48.756;9.226;2022-07-05T14:59:53;26.80;95.30
18426;DHT22;9340;48.756;9.226;2022-07-05T15:02:19;27.00;94.90
18426;DHT22;9340;48.756;9.226;2022-07-05T15:04:46;27.00;95.70
18426;DHT22;9340;48.756;9.226;2022-07-05T15:07:15;27.10;96.40
18426;DHT22;9340;48.756;9.226;2022-07-05T15:09:42;27.10;97.20
18426;DHT22;9340;48.756;9.226;2022-07-05T15:12:09;27.10;94.20
18426;DHT22;9340;48.756;9.226;2022-07-05T15:14:36;27.00;95.70
18426;DHT22;9340;48.756;9.226;2022-07-05T15:17:02;27.00;93.90
18426;DHT22;9340;48.756;9.226;2022-07-05T15:19:29;27.00;94.50
18426;DHT22;9340;48.756;9.226;2022-07-05T15:21:56;26.90;93.50
18426;DHT22;9340;48.756;9.226;2022-07-05T15:24:24;27.00;95.30
18426;DHT22;9340;48.756;9.226;2022-07-05T15:26:52;27.20;95.90
18426;DHT22;9340;48.756;9.226;2022-07-05T15:29:18;27.30;94.50
18426;DHT22;9340;48.756;9.226;2022-07-05T15:31:45;27.40;94.30
18426;DHT22;9340;48.756;9.226;2022-07-05T15:34:12;27.30;93.90
18426;DHT22;9340;48.756;9.226;2022-07-05T15:36:38;27.40;94.40
18426;DHT22;9340;48.756;9.226;2022-07-05T15:39:06;27.40;94.80
18426;DHT22;9340;48.756;9.226;2022-07-05T15:41:34;27.30;95.20
18426;DHT22;9340;48.756;9.226;2022-07-05T15:44:02;27.10;95.30
18426;DHT22;9340;48.756;9.226;2022-07-05T15:46:28;26.80;94.30
18426;DHT22;9340;48.756;9.226;2022-07-05T15:49:16;26.90;93.80
18426;DHT22;9340;48.756;9.226;2022-07-05T15:51:43;26.80;94.20
18426;DHT22;9340;48.756;9.226;2022-07-05T15:54:10;26.80;93.90